Time;durP1;ratioP1;P1;durP2;ratioP2;P2;SDS_P1;SDS_P2;PMS_P1;PMS_P2;Temp;Humidity;BMP_temperature;BMP_pressure;BME280_temperature;BME280_humidity;BME280_pressure;Samples;Min_cycle;Max_cycle;Signal;HPM_P1;HPM_P2
2023/09/12 00:01:06;;;;;;;25.23;17.60;;;19.00;93.70;;;;;;4981693;28;20143;-74
2023/09/12 00:03:33;;;;;;;23.50;17.10;;;19.00;93.80;;;;;;4981618;28;20030;-73
2023/09/12 00:06:00;;;;;;;29.40;18.67;;;19.00;93.90;;;;;;4991351;28;20526;-74
2023/09/12 00:08:26;;;;;;;23.88;18.00;;;18.90;94.60;;;;;;4990808;28;20514;-74
2023/09/12 00:11:06;;;;;;;30.80;19.10;;;18.90;94.90;;;;;;4991605;28;20038;-73
2023/09/12 00:13:32;;;;;;;33.67;21.00;;;18.90;95.10;;;;;;4986192;28;20080;-73
2023/09/12 00:15:57;;;;;;;26.35;19.73;;;18.90;95.10;;;;;;4987928;28;20027;-74
2023/09/12 00:18:23;;;;;;;32.58;23.05;;;18.80;95.60;;;;;;4987334;28;20039;-73
2023/09/12 00:20:50;;;;;;;36.55;22.25;;;18.90;95.70;;;;;;4990934;28;20031;-73
2023/09/12 00:23:16;;;;;;;42.08;25.25;;;18.90;95.80;;;;;;4993660;28;20494;-74
2023/09/12 00:25:41;;;;;;;40.13;23.88;;;18.90;96.10;;;;;;4991537;28;20046;-73
2023/09/12 00:28:07;;;;;;;44.83;24.63;;;18.90;96.20;;;;;;4990892;28;20038;-73
2023/09/12 00:30:32;;;;;;;44.13;26.25;;;19.00;96.20;;;;;;4983558;28;20039;-73
2023/09/12 00:32:58;;;;;;;42.60;27.10;;;19.00;96.20;;;;;;4988907;28;20034;-73
2023/09/12 00:35:23;;;;;;;45.65;26.38;;;19.00;96.30;;;;;;4990901;28;20399;-72
2023/09/12 00:37:48;;;;;;;45.92;26.70;;;19.00;96.40;;;;;;4983409;28;20031;-73
2023/09/12 00:40:14;;;;;;;49.95;26.67;;;19.00;96.40;;;;;;4993668;28;20475;-73
2023/09/12 00:42:40;;;;;;;45.28;27.08;;;19.00;96.40;;;;;;4988146;28;20074;-73
2023/09/12 00:45:06;;;;;;;43.10;27.00;;;19.10;96.40;;;;;;5005784;28;20045;-73
2023/09/12 00:47:32;;;;;;;49.33;28.58;;;19.00;96.40;;;;;;4991022;28;20102;-73
2023/09/12 00:49:59;;;;;;;44.63;26.80;;;19.10;96.30;;;;;;4999532;28;20160;-73
2023/09/12 00:52:26;;;;;;;45.63;28.30;;;19.10;96.30;;;;;;4996949;28;20169;-73
2023/09/12 00:54:52;;;;;;;46.67;26.92;;;19.10;96.50;;;;;;4990191;28;20113;-73
2023/09/12 00:57:18;;;;;;;46.72;27.77;;;19.10;96.30;;;;;;4989138;28;20519;-73
2023/09/12 00:59:44;;;;;;;45.10;26.58;;;19.20;96.30;;;;;;4992123;28;20034;-73
2023/09/12 01:02:09;;;;;;;43.05;25.42;;;19.20;96.20;;;;;;4984007;28;20034;-73
2023/09/12 01:04:36;;;;;;;48.95;26.33;;;19.20;95.80;;;;;;4988690;28;20382;-73
2023/09/12 01:07:05;;;;;;;41.00;25.52;;;19.20;95.90;;;;;;4992218;28;20529;-73
2023/09/12 01:09:32;;;;;;;48.42;26.40;;;19.20;95.90;;;;;;4993393;28;20022;-74
2023/09/12 01:11:58;;;;;;;44.47;26.73;;;19.10;95.60;;;;;;4987985;28;20034;-73
2023/09/12 01:14:23;;;;;;;42.95;26.30;;;19.20;95.40;;;;;;4990291;28;20153;-73
2023/09/12 01:16:49;;;;;;;46.05;23.98;;;19.20;95.40;;;;;;4988411;28;20045;-72
2023/09/12 01:19:16;;;;;;;39.10;24.75;;;19.20;95.40;;;;;;4993476;28;20041;-73
2023/09/12 01:22:03;;;;;;;44.28;25.35;;;19.20;95.30;;;;;;4996836;28;20035;-74
2023/09/12 01:25:03;;;;;;;40.25;23.63;;;19.20;95.60;;;;;;4989203;28;20487;-73
2023/09/12 01:27:37;;;;;;;47.60;25.57;;;19.20;95.60;;;;;;4985382;28;20624;-73
2023/09/12 01:30:05;;;;;;;47.15;27.15;;;19.20;95.60;;;;;;4991628;28;20468;-73
2023/09/12 01:32:33;;;;;;;47.35;26.83;;;19.20;95.80;;;;;;4983789;28;20114;-73
2023/09/12 01:34:59;;;;;;;50.00;27.73;;;19.20;96.20;;;;;;4991494;28;20040;-73
2023/09/12 01:37:24;;;;;;;45.72;27.52;;;19.10;96.30;;;;;;4984128;28;20465;-74
2023/09/12 01:39:50;;;;;;;48.05;28.75;;;19.10;96.40;;;;;;4989354;28;20037;-73
2023/09/12 01:42:18;;;;;;;51.05;27.52;;;19.00;96.60;;;;;;4989955;28;20042;-75
2023/09/12 01:44:45;;;;;;;45.60;27.95;;;19.00;96.70;;;;;;4984253;28;20329;-72
2023/09/12 01:47:12;;;;;;;53.03;29.55;;;19.00;96.90;;;;;;4965408;28;20492;-73
2023/09/12 01:49:41;;;;;;;58.75;29.48;;;19.00;97.10;;;;;;4981153;28;20487;-73
2023/09/12 01:52:07;;;;;;;53.50;28.92;;;19.00;97.30;;;;;;4989349;28;20483;-72
2023/09/12 01:54:36;;;;;;;52.90;28.42;;;19.00;97.40;;;;;;4985231;28;20114;-72
2023/09/12 01:57:02;;;;;;;52.30;30.02;;;19.00;97.40;;;;;;4988993;28;20035;-74
2023/09/12 01:59:29;;;;;;;55.25;29.83;;;18.90;97.30;;;;;;4988390;28;20486;-73
2023/09/12 02:01:54;;;;;;;52.80;29.23;;;18.90;97.50;;;;;;4983482;28;20026;-72
2023/09/12 02:04:20;;;;;;;57.28;31.45;;;18.90;97.80;;;;;;4984922;28;20383;-72
2023/09/12 02:06:45;;;;;;;55.90;30.50;;;18.90;97.80;;;;;;4991241;28;20125;-74
2023/09/12 02:09:11;;;;;;;58.70;30.30;;;18.80;97.90;;;;;;4988272;28;20433;-72
2023/09/12 02:11:36;;;;;;;50.25;31.48;;;18.90;97.90;;;;;;4987189;28;20090;-73
2023/09/12 02:14:02;;;;;;;55.00;30.83;;;18.80;97.90;;;;;;4987554;28;20096;-72
2023/09/12 02:16:29;;;;;;;51.72;29.90;;;18.70;98.00;;;;;;4970620;28;20031;-74
2023/09/12 02:18:54;;;;;;;55.90;30.98;;;18.70;98.10;;;;;;4971604;28;20356;-73
2023/09/12 02:21:20;;;;;;;50.25;31.00;;;18.70;98.00;;;;;;4987993;28;20038;-74
2023/09/12 02:23:45;;;;;;;56.83;32.00;;;18.70;98.20;;;;;;4986931;28;20042;-76
2023/09/12 02:26:11;;;;;;;53.95;29.92;;;18.70;98.30;;;;;;4984240;28;20121;-73
2023/09/12 02:28:36;;;;;;;59.72;31.63;;;18.60;98.30;;;;;;4988987;28;20061;-74
2023/09/12 02:31:02;;;;;;;52.70;30.95;;;18.70;98.50;;;;;;4971771;28;20034;-73
2023/09/12 02:33:27;;;;;;;60.70;33.13;;;18.70;98.40;;;;;;4987125;28;21162;-74
2023/09/12 02:35:53;;;;;;;59.55;32.17;;;18.70;98.40;;;;;;4985719;28;20960;-72
2023/09/12 02:38:18;;;;;;;59.88;32.47;;;18.70;98.50;;;;;;4993817;28;20034;-72
2023/09/12 02:40:44;;;;;;;59.72;31.33;;;18.60;98.50;;;;;;4989824;28;20061;-72
2023/09/12 02:43:09;;;;;;;57.33;32.13;;;18.60;98.60;;;;;;4988759;28;20036;-76
2023/09/12 02:45:35;;;;;;;55.03;31.15;;;18.60;98.60;;;;;;4991007;28;20088;-74
2023/09/12 02:48:00;;;;;;;52.58;31.25;;;18.60;98.70;;;;;;4989564;28;20121;-73
2023/09/12 02:50:26;;;;;;;57.97;32.03;;;18.60;98.70;;;;;;4990768;28;20058;-72
2023/09/12 02:52:51;;;;;;;57.75;31.95;;;18.60;98.70;;;;;;4991682;28;20070;-74
2023/09/12 02:55:17;;;;;;;54.55;31.40;;;18.60;98.60;;;;;;4973517;28;20044;-74
2023/09/12 02:57:42;;;;;;;56.80;31.80;;;18.60;98.60;;;;;;4989838;28;20058;-72
2023/09/12 03:00:09;;;;;;;61.80;31.95;;;18.60;98.70;;;;;;4991636;28;20394;-73
2023/09/12 03:02:34;;;;;;;53.75;31.13;;;18.60;98.70;;;;;;4987853;28;20054;-73
2023/09/12 03:05:01;;;;;;;60.92;32.63;;;18.60;98.70;;;;;;4990501;28;20509;-73
2023/09/12 03:07:27;;;;;;;59.50;33.13;;;18.60;98.80;;;;;;4991476;28;20034;-73
2023/09/12 03:09:52;;;;;;;58.35;32.03;;;18.60;98.70;;;;;;4987923;28;20097;-74
2023/09/12 03:12:18;;;;;;;56.17;32.80;;;18.60;98.90;;;;;;4989599;28;20454;-74
2023/09/12 03:14:43;;;;;;;57.25;31.40;;;18.60;98.90;;;;;;4990088;28;20054;-74
2023/09/12 03:17:08;;;;;;;61.85;33.60;;;18.50;99.00;;;;;;4989849;28;20046;-74
2023/09/12 03:19:34;;;;;;;57.08;31.88;;;18.50;99.00;;;;;;4983861;28;20295;-73
2023/09/12 03:21:59;;;;;;;58.35;32.28;;;18.60;99.10;;;;;;4990461;28;20041;-73
2023/09/12 03:24:25;;;;;;;63.90;33.05;;;18.50;99.20;;;;;;4976172;28;20174;-73
2023/09/12 03:26:51;;;;;;;60.95;30.65;;;18.50;99.10;;;;;;4989886;28;20387;-73
2023/09/12 03:29:17;;;;;;;62.05;32.95;;;18.50;99.30;;;;;;4973576;28;20056;-73
2023/09/12 03:31:42;;;;;;;65.47;32.70;;;18.50;99.30;;;;;;4992750;28;20476;-73
2023/09/12 03:34:08;;;;;;;62.55;32.08;;;18.50;99.40;;;;;;4972114;28;20038;-74
2023/09/12 03:36:33;;;;;;;59.97;32.05;;;18.50;99.50;;;;;;4978239;28;20474;-73
2023/09/12 03:38:59;;;;;;;64.47;32.35;;;18.50;99.60;;;;;;4992066;28;20391;-73
2023/09/12 03:41:25;;;;;;;60.75;30.95;;;18.50;99.60;;;;;;4989487;28;20030;-74
2023/09/12 03:43:54;;;;;;;65.40;31.63;;;18.40;99.60;;;;;;4984934;28;20503;-75
2023/09/12 03:46:20;;;;;;;56.83;30.92;;;18.50;99.70;;;;;;4989708;28;20479;-74
2023/09/12 03:48:45;;;;;;;63.33;31.80;;;18.50;99.70;;;;;;4990157;28;20033;-73
2023/09/12 03:51:11;;;;;;;64.72;31.83;;;18.50;99.70;;;;;;4991441;28;20035;-73
2023/09/12 03:53:37;;;;;;;58.25;31.05;;;18.50;99.70;;;;;;4993497;28;20508;-73
2023/09/12 03:56:02;;;;;;;61.50;31.25;;;18.40;99.80;;;;;;4993350;28;20041;-73
2023/09/12 03:58:27;;;;;;;63.45;32.08;;;18.40;99.70;;;;;;4984153;28;20506;-74
2023/09/12 04:00:53;;;;;;;71.18;33.55;;;18.30;99.80;;;;;;4979320;28;20030;-77
2023/09/12 04:03:20;;;;;;;62.90;31.50;;;18.30;99.90;;;;;;4979871;28;20031;-73
2023/09/12 04:05:47;;;;;;;65.72;32.08;;;18.30;99.90;;;;;;4983953;28;20058;-73
2023/09/12 04:08:12;;;;;;;59.38;32.25;;;18.20;99.90;;;;;;4986423;28;20450;-73
2023/09/12 04:10:38;;;;;;;59.83;31.35;;;18.20;99.90;;;;;;4994350;28;20102;-73
2023/09/12 04:13:03;;;;;;;68.82;33.35;;;18.20;99.90;;;;;;4992666;28;20058;-72
2023/09/12 04:15:29;;;;;;;70.85;33.53;;;18.20;99.90;;;;;;4990882;28;20042;-73
2023/09/12 04:17:54;;;;;;;69.60;33.47;;;18.10;99.90;;;;;;4980778;28;20042;-73
2023/09/12 04:20:20;;;;;;;71.63;32.65;;;18.20;99.90;;;;;;4981659;28;20470;-73
2023/09/12 04:22:45;;;;;;;70.97;33.90;;;18.20;99.90;;;;;;4984130;28;20034;-78
2023/09/12 04:25:11;;;;;;;74.57;33.97;;;18.20;99.90;;;;;;4994611;28;20052;-73
2023/09/12 04:27:37;;;;;;;77.90;34.97;;;18.20;99.90;;;;;;4984774;28;20045;-71
2023/09/12 04:30:03;;;;;;;73.28;33.97;;;18.20;99.90;;;;;;4986774;28;20414;-72
2023/09/12 04:32:30;;;;;;;67.30;32.95;;;18.20;99.90;;;;;;4977823;28;20033;-69
2023/09/12 04:34:55;;;;;;;72.40;33.58;;;18.20;99.90;;;;;;4989133;28;20463;-69
2023/09/12 04:37:21;;;;;;;77.45;34.60;;;18.20;99.90;;;;;;4981496;28;20064;-70
2023/09/12 04:39:46;;;;;;;74.05;34.15;;;18.20;99.90;;;;;;4985362;28;20035;-70
2023/09/12 04:42:12;;;;;;;76.63;33.25;;;18.20;99.90;;;;;;4981055;28;20061;-69
2023/09/12 04:44:39;;;;;;;77.40;35.25;;;18.20;99.90;;;;;;4988764;28;20034;-71
2023/09/12 04:47:05;;;;;;;68.35;32.88;;;18.20;99.90;;;;;;4985278;28;20039;-69
2023/09/12 04:49:30;;;;;;;72.57;32.50;;;18.20;99.90;;;;;;4988995;28;20031;-70
2023/09/12 04:51:56;;;;;;;74.05;33.50;;;18.20;99.90;;;;;;4983334;28;20039;-70
2023/09/12 04:54:21;;;;;;;75.55;33.28;;;18.20;99.90;;;;;;4965819;28;20035;-69
2023/09/12 04:56:47;;;;;;;72.70;32.40;;;18.20;99.90;;;;;;4990611;28;20490;-71
2023/09/12 04:59:12;;;;;;;67.25;32.85;;;18.20;99.90;;;;;;4985814;28;20121;-69
2023/09/12 05:01:38;;;;;;;80.35;35.38;;;18.30;99.90;;;;;;4977860;28;20031;-69
2023/09/12 05:04:04;;;;;;;82.70;34.92;;;18.20;99.90;;;;;;4981594;28;20042;-71
2023/09/12 05:06:29;;;;;;;76.00;34.72;;;18.30;99.90;;;;;;4988673;28;20045;-69
2023/09/12 05:08:55;;;;;;;75.57;34.28;;;18.30;99.90;;;;;;4987545;28;20062;-72
2023/09/12 05:11:23;;;;;;;77.03;32.67;;;18.30;99.90;;;;;;4977270;28;20033;-70
2023/09/12 05:13:49;;;;;;;82.28;33.67;;;18.40;99.90;;;;;;4984926;28;20042;-72
2023/09/12 05:16:14;;;;;;;74.40;32.00;;;18.30;99.90;;;;;;4989956;28;20061;-73
2023/09/12 05:18:40;;;;;;;75.50;32.90;;;18.40;99.90;;;;;;4983290;28;20084;-71
2023/09/12 05:21:05;;;;;;;77.32;33.35;;;18.30;99.90;;;;;;4986833;28;20570;-70
2023/09/12 05:23:31;;;;;;;83.18;34.88;;;18.30;99.90;;;;;;4988295;28;20104;-69
2023/09/12 05:25:56;;;;;;;77.88;34.17;;;18.40;99.90;;;;;;4988348;28;20538;-70
2023/09/12 05:28:22;;;;;;;83.72;33.83;;;18.40;99.90;;;;;;4987443;28;20105;-69
2023/09/12 05:30:47;;;;;;;80.47;33.92;;;18.30;99.90;;;;;;4986054;28;20129;-71
2023/09/12 05:33:13;;;;;;;77.18;33.58;;;18.30;99.90;;;;;;4983714;28;20038;-69
2023/09/12 05:35:38;;;;;;;67.35;32.17;;;18.30;99.90;;;;;;4985253;28;20038;-69
2023/09/12 05:38:04;;;;;;;83.07;35.63;;;18.30;99.90;;;;;;4975536;28;20030;-69
2023/09/12 05:40:29;;;;;;;82.82;33.63;;;18.40;99.90;;;;;;4988529;28;20041;-69
2023/09/12 05:42:55;;;;;;;78.30;32.95;;;18.30;99.90;;;;;;4983744;28;20475;-69
2023/09/12 05:45:20;;;;;;;77.88;33.97;;;18.40;99.90;;;;;;4969229;28;20068;-69
2023/09/12 05:47:46;;;;;;;78.00;33.72;;;18.40;99.90;;;;;;4984471;28;20118;-69
2023/09/12 05:50:11;;;;;;;76.40;31.55;;;18.50;99.90;;;;;;4990978;28;20141;-69
2023/09/12 05:52:37;;;;;;;84.50;32.72;;;18.50;99.90;;;;;;4998353;28;20128;-68
2023/09/12 05:55:04;;;;;;;85.30;33.92;;;18.50;99.90;;;;;;4991674;28;20426;-68
2023/09/12 05:57:33;;;;;;;85.05;34.65;;;18.50;99.90;;;;;;4985259;28;20339;-69
2023/09/12 05:59:59;;;;;;;86.85;34.00;;;18.60;99.90;;;;;;4977195;28;20034;-69
2023/09/12 06:02:25;;;;;;;83.15;32.75;;;18.50;99.90;;;;;;4980872;28;20026;-68
2023/09/12 06:04:51;;;;;;;79.53;33.95;;;18.50;99.90;;;;;;4983969;28;20535;-68
2023/09/12 06:07:16;;;;;;;76.50;33.90;;;18.50;99.90;;;;;;4977731;28;20039;-71
2023/09/12 06:09:42;;;;;;;80.50;33.28;;;18.50;99.90;;;;;;4961211;28;20393;-70
2023/09/12 06:12:07;;;;;;;79.90;34.28;;;18.50;99.90;;;;;;4990030;28;20092;-70
2023/09/12 06:14:33;;;;;;;101.72;32.70;;;18.50;99.90;;;;;;4989676;28;20038;-69
2023/09/12 06:16:58;;;;;;;80.97;34.33;;;18.50;99.90;;;;;;4985976;28;20395;-68
2023/09/12 06:19:24;;;;;;;90.13;35.20;;;18.40;99.90;;;;;;4990047;28;20038;-68
2023/09/12 06:21:50;;;;;;;93.50;32.72;;;18.40;99.90;;;;;;5004242;28;20057;-68
2023/09/12 06:24:16;;;;;;;115.10;34.40;;;18.50;99.90;;;;;;5001790;28;20046;-68
2023/09/12 06:26:42;;;;;;;105.22;34.40;;;18.50;99.90;;;;;;5006315;28;20048;-69
2023/09/12 06:29:08;;;;;;;79.85;32.90;;;18.40;99.90;;;;;;5001190;28;20034;-68
2023/09/12 06:31:35;;;;;;;84.47;32.67;;;18.50;99.90;;;;;;5002175;28;20026;-69
2023/09/12 06:34:01;;;;;;;105.93;32.38;;;18.50;99.90;;;;;;4992502;28;20107;-68
2023/09/12 06:36:29;;;;;;;76.70;33.03;;;18.50;99.90;;;;;;4995417;28;20455;-68
2023/09/12 06:38:55;;;;;;;73.60;29.88;;;18.50;99.90;;;;;;4994827;28;20540;-68
2023/09/12 06:41:21;;;;;;;62.03;28.77;;;18.50;99.90;;;;;;4995134;28;20022;-68
2023/09/12 06:43:46;;;;;;;58.22;28.70;;;18.50;99.90;;;;;;4992507;28;20482;-72
2023/09/12 06:46:12;;;;;;;96.10;28.58;;;18.50;99.90;;;;;;4993097;28;20042;-68
2023/09/12 06:48:37;;;;;;;84.45;27.88;;;18.50;99.90;;;;;;4991514;28;20089;-70
2023/09/12 06:51:08;;;;;;;96.70;27.42;;;18.50;99.90;;;;;;4991301;28;20165;-68
2023/09/12 06:53:33;;;;;;;62.53;27.13;;;18.40;99.90;;;;;;4988123;28;20038;-68
2023/09/12 06:55:59;;;;;;;65.90;24.90;;;18.50;99.90;;;;;;4992196;28;20081;-68
2023/09/12 06:58:34;;;;;;;58.80;27.27;;;18.40;99.90;;;;;;4993895;28;20363;-68
2023/09/12 07:01:04;;;;;;;80.65;25.13;;;18.50;99.90;;;;;;4991914;28;20045;-69
2023/09/12 07:03:30;;;;;;;99.55;27.92;;;18.50;99.90;;;;;;4991217;28;20019;-68
2023/09/12 07:05:56;;;;;;;67.20;25.95;;;18.40;99.90;;;;;;4993136;28;20057;-68
2023/09/12 07:08:21;;;;;;;52.75;25.88;;;18.40;99.90;;;;;;4989561;28;20489;-68
2023/09/12 07:10:46;;;;;;;48.25;25.17;;;18.50;99.90;;;;;;4992455;28;20042;-67
2023/09/12 07:13:12;;;;;;;55.15;26.45;;;18.50;99.90;;;;;;4991554;28;20038;-69
2023/09/12 07:15:38;;;;;;;59.45;27.52;;;18.50;99.90;;;;;;4992917;28;20031;-68
2023/09/12 07:18:05;;;;;;;67.60;28.80;;;18.60;99.90;;;;;;4989697;28;20038;-68
2023/09/12 07:20:30;;;;;;;52.63;25.80;;;18.60;99.90;;;;;;4993687;28;20026;-68
2023/09/12 07:22:56;;;;;;;63.60;26.05;;;18.70;99.90;;;;;;4993738;28;20041;-68
2023/09/12 07:25:23;;;;;;;49.33;25.38;;;18.60;99.90;;;;;;4982856;28;20047;-69
2023/09/12 07:27:49;;;;;;;54.70;27.98;;;18.70;99.90;;;;;;4992424;28;20062;-69
2023/09/12 07:30:15;;;;;;;53.08;26.42;;;18.80;99.90;;;;;;4990600;28;20046;-68
2023/09/12 07:32:41;;;;;;;54.72;25.00;;;18.80;99.90;;;;;;4990290;28;20101;-67
2023/09/12 07:35:07;;;;;;;48.47;24.67;;;18.90;99.90;;;;;;4992624;28;20038;-68
2023/09/12 07:37:32;;;;;;;53.38;25.13;;;18.90;99.90;;;;;;4993535;28;20459;-68
2023/09/12 07:39:57;;;;;;;50.55;23.67;;;18.80;99.90;;;;;;4993084;28;20386;-68
2023/09/12 07:42:24;;;;;;;44.92;23.33;;;18.90;99.90;;;;;;4991461;28;20081;-68
2023/09/12 07:44:50;;;;;;;45.60;21.52;;;18.90;99.90;;;;;;4992723;28;20054;-68
2023/09/12 07:47:15;;;;;;;38.92;21.73;;;18.90;99.90;;;;;;4988117;28;20077;-69
2023/09/12 07:49:41;;;;;;;36.15;21.13;;;19.00;99.90;;;;;;4991433;28;20034;-68
2023/09/12 07:52:06;;;;;;;44.38;22.10;;;19.00;99.90;;;;;;4992771;28;20113;-68
2023/09/12 07:54:32;;;;;;;31.35;20.52;;;19.00;99.90;;;;;;4991601;28;20034;-68
2023/09/12 07:56:57;;;;;;;39.38;23.02;;;19.00;99.90;;;;;;4990896;28;20450;-69
2023/09/12 07:59:23;;;;;;;33.08;20.90;;;19.10;99.90;;;;;;4976466;28;20023;-69
2023/09/12 08:01:48;;;;;;;30.52;19.73;;;19.30;99.90;;;;;;4979185;28;20038;-68
2023/09/12 08:04:14;;;;;;;31.73;20.02;;;19.30;99.90;;;;;;4989116;28;20152;-68
2023/09/12 08:06:40;;;;;;;27.20;19.10;;;19.30;99.90;;;;;;4991182;28;20034;-68
2023/09/12 08:09:06;;;;;;;28.95;19.48;;;19.30;99.90;;;;;;4990533;28;20038;-68
2023/09/12 08:11:32;;;;;;;27.05;19.13;;;19.40;99.90;;;;;;4987201;28;20483;-68
2023/09/12 08:13:57;;;;;;;27.95;20.08;;;19.40;99.90;;;;;;4991991;28;20129;-69
2023/09/12 08:16:23;;;;;;;28.00;18.95;;;19.40;99.90;;;;;;4972514;28;20116;-69
2023/09/12 08:18:48;;;;;;;29.38;19.15;;;19.50;99.90;;;;;;4992366;28;20088;-70
2023/09/12 08:21:14;;;;;;;27.33;19.55;;;19.50;99.80;;;;;;4996481;28;20038;-69
2023/09/12 08:23:39;;;;;;;28.05;18.95;;;19.70;99.60;;;;;;4992629;28;20103;-69
2023/09/12 08:26:05;;;;;;;28.38;18.67;;;19.70;99.60;;;;;;4990979;28;20035;-70
2023/09/12 08:28:30;;;;;;;27.55;18.98;;;19.90;99.60;;;;;;4988214;28;20471;-68
2023/09/12 08:30:56;;;;;;;29.92;18.15;;;19.90;99.00;;;;;;4995153;28;20061;-68
2023/09/12 08:33:21;;;;;;;24.83;18.20;;;20.00;99.10;;;;;;4995734;28;20034;-68
2023/09/12 08:35:49;;;;;;;25.63;17.42;;;20.00;98.80;;;;;;4993666;28;20097;-69
2023/09/12 08:38:14;;;;;;;32.15;17.80;;;20.10;98.50;;;;;;4992690;28;20068;-69
2023/09/12 08:40:40;;;;;;;26.50;17.90;;;20.20;98.40;;;;;;4989301;28;20515;-68
2023/09/12 08:43:06;;;;;;;27.98;18.10;;;20.30;98.40;;;;;;4986313;28;20037;-68
2023/09/12 08:45:31;;;;;;;23.67;16.27;;;20.50;98.00;;;;;;4992334;28;20539;-68
2023/09/12 08:48:00;;;;;;;25.65;16.70;;;20.60;97.70;;;;;;4986926;28;20054;-68
2023/09/12 08:50:30;;;;;;;22.75;16.42;;;20.70;97.20;;;;;;4989055;28;20060;-68
2023/09/12 08:52:56;;;;;;;22.90;17.30;;;20.80;96.90;;;;;;4989807;28;20122;-69
2023/09/12 08:55:21;;;;;;;22.77;16.02;;;21.10;97.00;;;;;;4991732;28;20152;-68
2023/09/12 08:57:50;;;;;;;23.98;16.23;;;21.20;96.60;;;;;;4994944;28;20743;-68
2023/09/12 09:00:16;;;;;;;28.38;17.90;;;21.10;95.70;;;;;;4996815;28;20045;-68
2023/09/12 09:02:43;;;;;;;23.15;16.27;;;21.20;95.90;;;;;;4986298;28;20034;-68
2023/09/12 09:05:10;;;;;;;24.33;16.50;;;21.20;95.90;;;;;;4985062;28;20030;-68
2023/09/12 09:07:37;;;;;;;21.67;15.52;;;21.30;95.20;;;;;;4984752;28;20069;-68
2023/09/12 09:10:07;;;;;;;20.40;15.43;;;21.40;95.40;;;;;;4987843;28;20023;-69
2023/09/12 09:12:34;;;;;;;23.52;14.63;;;21.40;94.90;;;;;;4987274;28;20037;-69
2023/09/12 09:15:26;;;;;;;20.92;14.07;;;21.50;94.70;;;;;;4982879;28;20035;-69
2023/09/12 09:17:56;;;;;;;21.63;14.57;;;21.50;94.80;;;;;;4986569;28;20031;-69
2023/09/12 09:20:34;;;;;;;22.27;14.75;;;21.60;94.30;;;;;;4981900;28;20470;-68
2023/09/12 09:23:09;;;;;;;20.23;13.80;;;21.50;94.00;;;;;;4986989;28;20089;-68
2023/09/12 09:25:37;;;;;;;19.98;14.68;;;21.50;94.80;;;;;;4987238;28;20138;-68
2023/09/12 09:28:19;;;;;;;23.15;15.57;;;21.30;94.70;;;;;;4988521;28;20049;-68
2023/09/12 09:30:47;;;;;;;21.33;14.85;;;21.00;95.00;;;;;;4989065;28;20057;-68
2023/09/12 09:33:13;;;;;;;19.52;14.38;;;20.80;95.60;;;;;;4993268;28;20030;-68
2023/09/12 09:35:41;;;;;;;18.92;13.93;;;20.70;95.90;;;;;;4990000;28;20026;-68
2023/09/12 09:38:08;;;;;;;18.80;15.02;;;20.60;96.30;;;;;;4987939;28;20057;-68
2023/09/12 09:40:34;;;;;;;20.10;14.65;;;20.50;96.30;;;;;;4985203;28;20038;-68
2023/09/12 09:43:01;;;;;;;19.52;13.68;;;20.50;96.60;;;;;;4985262;28;20076;-69
2023/09/12 09:45:29;;;;;;;18.70;14.88;;;20.40;96.80;;;;;;4971583;28;20030;-69
2023/09/12 09:47:58;;;;;;;19.90;14.05;;;20.40;96.80;;;;;;4990429;28;20038;-68
2023/09/12 09:50:24;;;;;;;19.75;13.98;;;20.30;96.70;;;;;;4988691;28;20479;-68
2023/09/12 09:52:57;;;;;;;19.38;14.15;;;20.30;96.80;;;;;;4989732;28;20030;-67
2023/09/12 09:55:23;;;;;;;20.63;14.68;;;20.30;96.90;;;;;;4989033;28;20042;-69
2023/09/12 09:57:51;;;;;;;20.80;14.82;;;20.30;97.10;;;;;;4988186;28;20042;-69
2023/09/12 10:00:18;;;;;;;20.38;14.52;;;20.30;97.20;;;;;;4992174;28;20065;-69
2023/09/12 10:02:45;;;;;;;20.48;13.68;;;20.30;97.20;;;;;;4987789;28;20061;-68
2023/09/12 10:05:11;;;;;;;20.13;13.75;;;20.20;97.00;;;;;;4994898;28;20030;-68
2023/09/12 10:07:39;;;;;;;21.63;14.63;;;20.10;97.00;;;;;;4994789;28;20117;-68
2023/09/12 10:10:06;;;;;;;18.65;14.07;;;20.10;97.10;;;;;;4992864;28;20027;-67
2023/09/12 10:12:35;;;;;;;15.50;12.38;;;20.10;96.90;;;;;;4994894;28;20033;-71
2023/09/12 10:15:01;;;;;;;16.40;12.60;;;20.00;97.10;;;;;;4990580;28;20039;-68
2023/09/12 10:17:35;;;;;;;16.02;11.80;;;20.00;96.90;;;;;;4986220;28;20041;-68
2023/09/12 10:20:09;;;;;;;14.85;11.95;;;19.90;97.10;;;;;;4992904;28;20030;-67
2023/09/12 10:22:55;;;;;;;15.07;10.45;;;19.90;97.10;;;;;;4992321;28;20105;-68
2023/09/12 10:25:21;;;;;;;13.30;10.32;;;19.70;97.10;;;;;;4986589;28;20395;-69
2023/09/12 10:27:49;;;;;;;15.55;10.73;;;19.80;97.20;;;;;;4991830;28;20423;-71
2023/09/12 10:30:15;;;;;;;14.43;10.77;;;19.70;97.10;;;;;;4991630;28;20502;-69
2023/09/12 10:32:45;;;;;;;14.60;10.45;;;19.70;97.30;;;;;;4984776;28;20423;-70
2023/09/12 10:35:10;;;;;;;13.93;10.02;;;19.60;97.00;;;;;;4995731;28;20026;-68
2023/09/12 10:37:40;;;;;;;12.23;9.45;;;19.60;97.20;;;;;;4975917;28;20038;-68
2023/09/12 10:40:08;;;;;;;12.98;9.18;;;19.50;97.30;;;;;;4993316;28;20062;-70
2023/09/12 10:42:34;;;;;;;13.73;8.88;;;19.40;97.40;;;;;;4992083;28;20045;-69
2023/09/12 10:45:02;;;;;;;11.40;9.38;;;19.30;97.40;;;;;;4992035;28;20387;-68
2023/09/12 10:47:28;;;;;;;11.45;8.70;;;19.20;97.40;;;;;;4986640;28;20049;-68
2023/09/12 10:49:55;;;;;;;10.20;8.00;;;19.20;97.50;;;;;;4991020;28;20046;-68
2023/09/12 10:52:28;;;;;;;12.45;9.10;;;19.20;97.70;;;;;;4992960;28;20112;-68
2023/09/12 10:54:54;;;;;;;11.48;8.27;;;19.20;98.00;;;;;;4994517;28;20057;-69
2023/09/12 10:57:20;;;;;;;13.07;8.63;;;19.00;97.80;;;;;;4994264;28;20039;-68
2023/09/12 11:00:04;;;;;;;11.73;8.98;;;19.10;98.30;;;;;;4991669;28;20534;-68
2023/09/12 11:02:34;;;;;;;12.70;9.27;;;19.00;98.30;;;;;;4985253;28;20026;-68
2023/09/12 11:05:00;;;;;;;12.40;9.55;;;18.90;98.50;;;;;;4986433;28;20116;-68
2023/09/12 11:07:38;;;;;;;12.65;9.27;;;18.80;98.40;;;;;;4988783;28;20503;-69
2023/09/12 11:10:16;;;;;;;13.45;9.48;;;18.80;98.60;;;;;;4999198;28;20479;-68
2023/09/12 11:12:43;;;;;;;16.95;10.27;;;18.80;98.50;;;;;;4991006;28;20030;-68
2023/09/12 11:15:10;;;;;;;14.38;10.02;;;18.70;98.60;;;;;;4983656;28;20188;-70
2023/09/12 11:17:47;;;;;;;15.88;9.88;;;18.70;98.90;;;;;;4991809;28;20529;-69
2023/09/12 11:20:14;;;;;;;15.95;10.68;;;18.80;99.00;;;;;;4999044;28;20149;-69
2023/09/12 11:22:42;;;;;;;14.20;10.90;;;18.80;99.00;;;;;;4983445;28;20037;-70
2023/09/12 11:25:28;;;;;;;15.07;10.02;;;18.90;99.20;;;;;;4997108;28;20065;-71
2023/09/12 11:27:53;;;;;;;14.65;10.25;;;18.90;99.20;;;;;;4994100;28;20486;-68
2023/09/12 11:30:20;;;;;;;15.95;11.82;;;18.90;99.20;;;;;;4990915;28;20064;-68
2023/09/12 11:32:48;;;;;;;18.60;11.02;;;18.90;99.10;;;;;;4995749;28;20022;-68
2023/09/12 11:35:14;;;;;;;15.15;10.50;;;19.00;99.30;;;;;;4992872;28;20042;-69
2023/09/12 11:37:48;;;;;;;14.82;11.15;;;19.00;99.10;;;;;;4992066;28;20046;-69
2023/09/12 11:40:14;;;;;;;17.63;10.82;;;18.80;98.80;;;;;;4990276;28;20041;-68
2023/09/12 11:42:40;;;;;;;17.05;10.90;;;18.80;98.90;;;;;;4989991;28;20030;-67
2023/09/12 11:45:08;;;;;;;15.43;11.00;;;18.90;99.20;;;;;;4990183;28;20439;-69
2023/09/12 11:47:34;;;;;;;15.60;10.73;;;19.00;99.10;;;;;;4992035;28;20046;-68
2023/09/12 11:49:59;;;;;;;15.95;9.98;;;19.00;98.80;;;;;;4986386;28;20030;-68
2023/09/12 11:52:25;;;;;;;14.98;10.70;;;19.00;98.80;;;;;;4991653;28;20040;-69
2023/09/12 11:54:50;;;;;;;14.35;10.05;;;19.20;98.80;;;;;;4994073;28;20041;-69
2023/09/12 11:57:16;;;;;;;16.52;11.88;;;19.40;99.00;;;;;;4977226;28;20121;-68
2023/09/12 11:59:51;;;;;;;14.75;11.02;;;19.50;98.70;;;;;;4982314;28;20066;-68
2023/09/12 12:02:18;;;;;;;14.65;10.88;;;19.50;98.60;;;;;;4979775;28;20030;-68
2023/09/12 12:04:44;;;;;;;14.70;10.35;;;19.60;98.70;;;;;;4990121;28;20033;-68
2023/09/12 12:07:10;;;;;;;12.88;10.00;;;19.60;98.30;;;;;;4991595;28;20038;-68
2023/09/12 12:09:36;;;;;;;12.07;9.13;;;19.60;98.10;;;;;;4989932;28;20027;-67
2023/09/12 12:12:09;;;;;;;13.90;9.95;;;19.60;98.20;;;;;;4990827;28;20371;-67
2023/09/12 12:14:35;;;;;;;10.88;9.52;;;19.80;98.20;;;;;;4981959;28;20062;-68
2023/09/12 12:17:11;;;;;;;10.95;8.05;;;19.70;97.70;;;;;;4990277;28;20037;-68
2023/09/12 12:19:38;;;;;;;12.48;9.10;;;19.70;97.50;;;;;;4991693;28;20038;-68
2023/09/12 12:22:08;;;;;;;11.25;9.00;;;19.70;97.60;;;;;;4990436;28;20030;-68
2023/09/12 12:24:38;;;;;;;13.07;8.38;;;19.90;97.90;;;;;;4994083;28;20117;-68
2023/09/12 12:27:04;;;;;;;14.05;8.77;;;19.60;97.30;;;;;;4990892;28;20506;-68